KWRL/WRL METAR and TAF weather

Enter ICAO airport designator
Station Type Date Time Source
KWRL METAR 2020/04/04 21:53 UTC NOAA

KWRL 042153Z AUTO 15004KT 10SM CLR 11/M10 A2974 RMK AO2 SLP083 T01061100


Station Type Date Time Source
KWRL Decoded METAR 2020/04/04 21:53 UTC NOAA

WORLAND MUNICIPAL AIRPORT, WY, United States (KWRL) 43-58N 107-57W 1271M
Apr 04, 2020 - 05:53 PM EDT / 2020.04.04 2153 UTC
Wind: from the SSE (150 degrees) at 5 MPH (4 KT):0
Visibility: 10 mile(s):0
Sky conditions: clear
Temperature: 51.1 F (10.6 C)
Dew Point: 14.0 F (-10.0 C)
Relative Humidity: 22%
Pressure (altimeter): 29.74 in. Hg (1007 hPa)
ob: KWRL 042153Z AUTO 15004KT 10SM CLR 11/M10 A2974 RMK AO2 SLP083 T01061100
cycle: 22

Station Type Date Time Source
KWRL TAF 2020/04/04 18:27 UTC NOAA

TAF KWRL 041724Z 0418/0518 17006KT P6SM SKC
FM042100 17006KT P6SM SCT080
FM050900 VRB05KT P6SM BKN100

Example: see airport list